createdAt,value
2022-08-03T00:02:20.417Z,22.40
2022-08-03T00:04:48.336Z,22.30
2022-08-03T00:07:16.363Z,22.30
2022-08-03T00:09:44.421Z,22.30
2022-08-03T00:12:12.061Z,22.30
2022-08-03T00:14:39.657Z,22.30
2022-08-03T00:17:07.170Z,22.30
2022-08-03T00:19:35.043Z,22.30
2022-08-03T00:22:02.510Z,22.30
2022-08-03T00:24:31.466Z,22.20
2022-08-03T00:26:58.927Z,22.20
2022-08-03T00:29:26.661Z,22.20
2022-08-03T00:32:00.314Z,22.20
2022-08-03T00:34:36.616Z,22.20
2022-08-03T00:37:16.383Z,22.20
2022-08-03T00:39:46.198Z,22.20
2022-08-03T00:42:14.451Z,22.20
2022-08-03T00:44:43.836Z,22.20
2022-08-03T00:47:12.088Z,22.20
2022-08-03T00:49:41.399Z,22.20
2022-08-03T00:52:14.054Z,22.10
2022-08-03T00:54:41.703Z,22.10
2022-08-03T00:57:09.740Z,22.20
2022-08-03T00:59:38.775Z,22.10
2022-08-03T01:02:06.873Z,22.20
2022-08-03T01:04:34.433Z,22.10
2022-08-03T01:07:12.824Z,22.10
2022-08-03T01:10:03.586Z,22.10
2022-08-03T01:14:01.715Z,22.10
2022-08-03T01:15:55.446Z,22.00
2022-08-03T01:18:35.692Z,22.00
2022-08-03T01:21:08.545Z,22.00
2022-08-03T01:23:48.292Z,22.00
2022-08-03T01:26:56.186Z,22.00
2022-08-03T01:29:52.203Z,22.00
2022-08-03T01:32:58.410Z,21.90
2022-08-03T01:35:28.264Z,22.00
2022-08-03T01:38:03.857Z,21.90
2022-08-03T01:40:36.993Z,21.90
2022-08-03T01:43:06.416Z,21.90
2022-08-03T01:45:35.883Z,21.90
2022-08-03T01:48:04.162Z,21.90
2022-08-03T01:50:34.567Z,21.90
2022-08-03T01:53:03.005Z,21.90
2022-08-03T01:55:33.654Z,21.90
2022-08-03T01:58:05.233Z,21.90
2022-08-03T02:00:37.643Z,21.90
2022-08-03T02:03:07.636Z,21.90
2022-08-03T02:05:36.589Z,21.90
2022-08-03T02:08:08.290Z,21.90
2022-08-03T02:10:38.062Z,21.90
2022-08-03T02:13:08.740Z,21.90
2022-08-03T02:15:39.556Z,21.90
2022-08-03T02:18:09.624Z,21.90
2022-08-03T02:20:39.287Z,21.90
2022-08-03T02:23:07.713Z,21.90
2022-08-03T02:25:42.182Z,21.90
2022-08-03T02:28:15.843Z,21.90
2022-08-03T02:30:46.448Z,21.90
2022-08-03T02:33:26.773Z,21.90
2022-08-03T02:35:56.018Z,21.90
2022-08-03T02:38:29.624Z,21.90
2022-08-03T02:40:59.202Z,21.90
2022-08-03T02:43:28.101Z,21.90
2022-08-03T02:46:09.753Z,21.90
2022-08-03T02:48:39.154Z,21.90
2022-08-03T02:51:06.705Z,21.90
2022-08-03T02:53:36.371Z,21.90
2022-08-03T02:56:05.998Z,21.90
2022-08-03T02:58:34.314Z,21.90
2022-08-03T03:01:03.446Z,21.90
2022-08-03T03:03:31.895Z,21.90
2022-08-03T03:06:13.057Z,21.90
2022-08-03T03:08:42.653Z,21.90
2022-08-03T03:11:11.524Z,21.90
2022-08-03T03:13:41.001Z,21.90
2022-08-03T03:16:09.855Z,21.90
2022-08-03T03:18:38.571Z,21.90
2022-08-03T03:21:08.621Z,21.90
2022-08-03T03:23:38.040Z,21.90
2022-08-03T03:26:07.018Z,21.90
2022-08-03T03:28:37.422Z,21.90
2022-08-03T03:31:07.025Z,21.90
2022-08-03T03:33:35.951Z,21.90
2022-08-03T03:36:05.052Z,21.90
2022-08-03T03:38:33.693Z,21.80
2022-08-03T03:41:02.515Z,21.90
2022-08-03T03:43:30.145Z,21.80
2022-08-03T03:45:58.983Z,21.80
2022-08-03T03:48:27.156Z,21.80
2022-08-03T03:50:54.840Z,21.80
2022-08-03T03:53:22.351Z,21.80
2022-08-03T03:55:59.019Z,21.80
2022-08-03T03:58:31.506Z,21.80
2022-08-03T04:00:59.344Z,21.80
2022-08-03T04:03:26.916Z,21.80
2022-08-03T04:06:13.060Z,21.80
2022-08-03T04:08:59.468Z,21.80
2022-08-03T04:11:39.788Z,21.70
2022-08-03T04:14:11.318Z,21.70
2022-08-03T04:16:45.354Z,21.80
2022-08-03T04:19:23.279Z,21.70
2022-08-03T04:21:57.196Z,21.70
2022-08-03T04:24:43.707Z,21.70
2022-08-03T04:27:15.604Z,21.70
2022-08-03T04:29:48.791Z,21.70
2022-08-03T04:32:17.981Z,21.70
2022-08-03T04:34:46.289Z,21.70
2022-08-03T04:37:24.557Z,21.70
2022-08-03T04:39:54.013Z,21.70
2022-08-03T04:42:26.143Z,21.70
2022-08-03T04:45:00.458Z,21.70
2022-08-03T04:47:31.055Z,21.70
2022-08-03T04:49:58.813Z,21.70
2022-08-03T04:52:26.316Z,21.70
2022-08-03T04:54:53.931Z,21.70
2022-08-03T04:57:22.239Z,21.70
2022-08-03T05:00:02.066Z,21.70
2022-08-03T05:02:32.399Z,21.70
2022-08-03T05:05:01.189Z,21.70
2022-08-03T05:07:34.126Z,21.80
2022-08-03T05:10:15.977Z,21.80
2022-08-03T05:12:48.334Z,21.80
2022-08-03T05:15:16.329Z,21.80
2022-08-03T05:17:44.062Z,21.80
2022-08-03T05:20:12.335Z,21.90
2022-08-03T05:22:39.948Z,21.90
2022-08-03T05:25:07.912Z,21.90
2022-08-03T05:27:35.563Z,21.90
2022-08-03T05:30:29.818Z,21.90
2022-08-03T05:32:50.953Z,21.90
2022-08-03T05:36:00.983Z,22.00
2022-08-03T05:38:06.472Z,22.00
2022-08-03T05:40:36.949Z,22.00
2022-08-03T05:43:04.765Z,22.10
2022-08-03T05:45:32.484Z,22.10
2022-08-03T05:48:00.225Z,22.10
2022-08-03T05:50:27.861Z,22.10
2022-08-03T05:52:58.426Z,22.20
2022-08-03T05:55:26.418Z,22.20
2022-08-03T05:57:56.678Z,22.20
2022-08-03T06:00:24.529Z,22.20
2022-08-03T06:02:53.324Z,22.30
2022-08-03T06:05:20.929Z,22.30
2022-08-03T06:07:48.455Z,22.40
2022-08-03T06:10:34.943Z,22.40
2022-08-03T06:13:03.616Z,22.50
2022-08-03T06:15:33.584Z,22.50
2022-08-03T06:18:02.182Z,22.60
2022-08-03T06:20:30.509Z,22.60
2022-08-03T06:23:00.144Z,22.70
2022-08-03T06:25:29.278Z,22.70
2022-08-03T06:27:57.294Z,22.70
2022-08-03T06:30:24.964Z,22.80
2022-08-03T06:32:52.646Z,22.80
2022-08-03T06:35:20.562Z,22.80
2022-08-03T06:37:49.921Z,22.90
2022-08-03T06:40:21.726Z,22.90
2022-08-03T06:42:52.072Z,23.00
2022-08-03T06:45:19.574Z,23.00
2022-08-03T06:47:47.120Z,23.10
2022-08-03T06:50:16.856Z,23.10
2022-08-03T06:52:45.629Z,23.20
2022-08-03T06:55:13.425Z,23.20
2022-08-03T06:57:40.870Z,23.30
2022-08-03T07:00:12.423Z,23.30
2022-08-03T07:02:41.104Z,23.40
2022-08-03T07:05:09.629Z,23.40
2022-08-03T07:07:37.540Z,23.50
2022-08-03T07:10:06.205Z,23.50
2022-08-03T07:12:35.342Z,23.60
2022-08-03T07:15:04.439Z,23.60
2022-08-03T07:17:34.041Z,23.70
2022-08-03T07:20:03.448Z,23.70
2022-08-03T07:22:31.150Z,23.80
2022-08-03T07:24:58.817Z,23.90
2022-08-03T07:27:27.345Z,23.90
2022-08-03T07:29:55.734Z,24.00
2022-08-03T07:32:24.016Z,24.00
2022-08-03T07:34:53.781Z,24.10
2022-08-03T07:37:23.514Z,24.10
2022-08-03T07:39:51.258Z,24.20
2022-08-03T07:42:19.027Z,24.20
2022-08-03T07:44:46.877Z,24.30
2022-08-03T07:47:35.683Z,24.40
2022-08-03T07:50:05.858Z,24.40
2022-08-03T07:52:48.281Z,24.50
2022-08-03T07:55:16.325Z,24.50
2022-08-03T07:57:43.746Z,24.60
2022-08-03T08:00:16.405Z,24.60
2022-08-03T08:02:44.041Z,24.70
2022-08-03T08:05:12.841Z,24.80
2022-08-03T08:07:40.376Z,24.80
2022-08-03T08:10:10.270Z,24.90
2022-08-03T08:12:40.881Z,24.90
2022-08-03T08:15:08.569Z,25.00
2022-08-03T08:17:42.967Z,25.10
2022-08-03T08:20:11.497Z,25.20
2022-08-03T08:22:38.860Z,25.20
2022-08-03T08:25:08.042Z,25.30
2022-08-03T08:28:22.393Z,25.40
2022-08-03T08:30:28.940Z,25.50
2022-08-03T08:32:59.059Z,25.50
2022-08-03T08:35:26.402Z,25.60
2022-08-03T08:37:53.734Z,25.70
2022-08-03T08:40:22.263Z,25.70
2022-08-03T08:42:58.460Z,25.80
2022-08-03T08:45:26.947Z,25.90
2022-08-03T08:48:00.197Z,25.90
2022-08-03T08:50:29.924Z,26.00
2022-08-03T08:53:00.744Z,26.10
2022-08-03T08:55:28.201Z,26.10
2022-08-03T08:58:01.412Z,26.20
2022-08-03T09:00:31.016Z,26.30
2022-08-03T09:02:58.964Z,26.30
2022-08-03T09:05:41.583Z,26.40
2022-08-03T09:08:13.796Z,26.50
2022-08-03T09:10:41.572Z,26.50
2022-08-03T09:13:09.282Z,26.60
2022-08-03T09:15:38.493Z,26.70
2022-08-03T09:18:05.998Z,26.80
2022-08-03T09:20:34.326Z,26.90
2022-08-03T09:23:14.066Z,26.90
2022-08-03T09:25:57.801Z,27.00
2022-08-03T09:29:01.512Z,27.10
2022-08-03T09:31:21.141Z,27.20
2022-08-03T09:33:49.327Z,27.20
2022-08-03T09:36:35.102Z,27.30
2022-08-03T09:39:06.052Z,27.30
2022-08-03T09:41:33.866Z,27.30
2022-08-03T09:44:01.209Z,27.30
2022-08-03T09:46:32.092Z,27.40
2022-08-03T09:49:12.294Z,27.50
2022-08-03T09:52:33.144Z,27.50
2022-08-03T09:54:28.940Z,27.60
2022-08-03T09:56:56.591Z,27.60
2022-08-03T09:59:28.523Z,27.70
2022-08-03T10:01:56.567Z,27.70
2022-08-03T10:04:24.515Z,27.80
2022-08-03T10:07:04.355Z,27.80
2022-08-03T10:09:31.817Z,27.90
2022-08-03T10:12:07.270Z,27.90
2022-08-03T10:14:36.188Z,27.90
2022-08-03T10:17:03.744Z,28.00
2022-08-03T10:19:31.272Z,28.00
2022-08-03T10:22:03.131Z,28.10
2022-08-03T10:24:31.071Z,28.20
2022-08-03T10:27:06.248Z,28.20
2022-08-03T10:29:39.110Z,28.30
2022-08-03T10:32:24.805Z,28.40
2022-08-03T10:35:00.244Z,28.40
2022-08-03T10:37:29.815Z,28.50
2022-08-03T10:39:58.611Z,28.50
2022-08-03T10:42:27.397Z,28.60
2022-08-03T10:45:08.120Z,28.60
2022-08-03T10:47:35.786Z,28.70
2022-08-03T10:50:04.570Z,28.70
2022-08-03T10:52:36.050Z,28.70
2022-08-03T10:55:53.166Z,28.80
2022-08-03T10:58:46.019Z,28.80
2022-08-03T11:01:59.832Z,28.90
2022-08-03T11:04:30.171Z,28.80
2022-08-03T11:07:16.735Z,28.90
2022-08-03T11:09:48.784Z,28.90
2022-08-03T11:12:27.853Z,28.90
2022-08-03T11:15:07.960Z,28.90
2022-08-03T11:17:46.228Z,28.90
2022-08-03T11:20:42.021Z,29.00
2022-08-03T11:23:09.477Z,29.00
2022-08-03T11:26:15.183Z,29.00
2022-08-03T11:28:43.702Z,29.00
2022-08-03T11:31:48.006Z,29.10
2022-08-03T11:34:11.694Z,29.10
2022-08-03T11:36:58.642Z,29.10
2022-08-03T11:39:53.283Z,29.20
2022-08-03T11:42:23.605Z,29.20
2022-08-03T11:44:51.595Z,29.20
2022-08-03T11:47:20.606Z,29.30
2022-08-03T11:49:48.672Z,29.30
2022-08-03T11:52:16.883Z,29.40
2022-08-03T11:54:44.920Z,29.40
2022-08-03T11:57:12.405Z,29.50
2022-08-03T11:59:39.843Z,29.50
2022-08-03T12:02:08.035Z,29.50
2022-08-03T12:04:51.018Z,29.60
2022-08-03T12:07:25.022Z,29.50
2022-08-03T12:10:15.852Z,29.60
2022-08-03T12:12:46.310Z,29.60
2022-08-03T12:15:14.184Z,29.70
2022-08-03T12:17:41.974Z,29.70
2022-08-03T12:20:10.342Z,29.80
2022-08-03T12:22:38.953Z,29.80
2022-08-03T12:25:09.215Z,29.90
2022-08-03T12:27:36.573Z,29.90
2022-08-03T12:30:04.450Z,29.90
2022-08-03T12:32:31.825Z,29.90
2022-08-03T12:35:01.921Z,30.00
2022-08-03T12:37:30.277Z,30.00
2022-08-03T12:40:09.393Z,30.00
2022-08-03T12:42:38.429Z,30.10
2022-08-03T12:45:24.463Z,30.10
2022-08-03T12:47:58.897Z,30.10
2022-08-03T12:50:29.530Z,30.20
2022-08-03T12:52:57.947Z,30.20
2022-08-03T12:55:57.129Z,30.20
2022-08-03T12:58:34.158Z,30.20
2022-08-03T13:01:05.186Z,30.20
2022-08-03T13:03:50.389Z,30.20
2022-08-03T13:06:20.517Z,30.30
2022-08-03T13:08:51.740Z,30.30
2022-08-03T13:11:19.547Z,30.30
2022-08-03T13:13:47.152Z,30.30
2022-08-03T13:16:18.983Z,30.30
2022-08-03T13:18:49.738Z,30.30
2022-08-03T13:21:17.464Z,30.40
2022-08-03T13:23:45.266Z,30.40
2022-08-03T13:26:12.755Z,30.40
2022-08-03T13:28:40.307Z,30.50
2022-08-03T13:31:07.834Z,30.50
2022-08-03T13:33:35.400Z,30.60
2022-08-03T13:36:02.923Z,30.60
2022-08-03T13:38:30.548Z,30.70
2022-08-03T13:40:58.402Z,30.70
2022-08-03T13:43:25.945Z,30.70
2022-08-03T13:45:56.664Z,30.80
2022-08-03T13:48:36.164Z,30.80
2022-08-03T13:51:05.696Z,30.80
2022-08-03T13:53:50.503Z,30.90
2022-08-03T13:56:17.989Z,30.90
2022-08-03T13:58:45.344Z,30.90
2022-08-03T14:01:13.098Z,31.00
2022-08-03T14:03:40.512Z,31.00
2022-08-03T14:06:10.227Z,31.00
2022-08-03T14:08:37.720Z,31.10
2022-08-03T14:11:05.288Z,31.10
2022-08-03T14:13:32.721Z,31.10
2022-08-03T14:16:00.320Z,31.10
2022-08-03T14:18:34.034Z,31.20
2022-08-03T14:21:06.769Z,31.20
2022-08-03T14:23:35.630Z,31.30
2022-08-03T14:26:03.146Z,31.30
2022-08-03T14:28:30.583Z,31.30
2022-08-03T14:30:58.071Z,31.30
2022-08-03T14:33:26.227Z,31.30
2022-08-03T14:35:53.782Z,31.30
2022-08-03T14:38:21.650Z,31.20
2022-08-03T14:40:49.680Z,31.20
2022-08-03T14:43:23.169Z,31.20
2022-08-03T14:45:52.612Z,31.20
2022-08-03T14:50:24.384Z,31.20
2022-08-03T14:51:07.969Z,31.20
2022-08-03T14:53:35.385Z,31.20
2022-08-03T14:56:06.495Z,31.20
2022-08-03T14:58:37.374Z,31.20
2022-08-03T15:02:03.188Z,31.20
2022-08-03T15:03:52.108Z,31.20
2022-08-03T15:06:19.469Z,31.20
2022-08-03T15:09:06.019Z,31.30
2022-08-03T15:11:34.291Z,31.30
2022-08-03T15:14:05.010Z,31.20
2022-08-03T15:16:36.497Z,31.20
2022-08-03T15:19:04.957Z,31.00
2022-08-03T15:21:51.290Z,30.80
2022-08-03T15:24:18.707Z,30.80
2022-08-03T15:26:46.046Z,30.60
2022-08-03T15:30:04.968Z,30.50
2022-08-03T15:32:01.983Z,30.40
2022-08-03T15:34:31.373Z,30.30
2022-08-03T15:36:58.832Z,30.20
2022-08-03T15:39:26.200Z,30.10
2022-08-03T15:41:53.627Z,30.00
2022-08-03T15:44:21.027Z,29.80
2022-08-03T15:46:48.754Z,29.80
2022-08-03T15:49:17.280Z,29.60
2022-08-03T15:51:44.613Z,29.50
2022-08-03T15:54:11.980Z,29.50
2022-08-03T15:56:39.436Z,29.40
2022-08-03T15:59:12.483Z,29.30
2022-08-03T16:01:41.512Z,29.20
2022-08-03T16:04:08.911Z,29.20
2022-08-03T16:06:36.678Z,29.10
2022-08-03T16:09:04.981Z,29.00
2022-08-03T16:11:32.594Z,28.90
2022-08-03T16:14:14.089Z,28.90
2022-08-03T16:16:47.761Z,28.80
2022-08-03T16:19:15.284Z,28.70
2022-08-03T16:21:48.030Z,28.70
2022-08-03T16:24:17.282Z,28.70
2022-08-03T16:26:47.261Z,28.70
2022-08-03T16:29:23.112Z,28.70
2022-08-03T16:31:51.950Z,28.70
2022-08-03T16:34:20.200Z,28.70
2022-08-03T16:36:47.818Z,28.70
2022-08-03T16:39:15.468Z,28.60
2022-08-03T16:41:53.762Z,28.60
2022-08-03T16:44:28.982Z,28.50
2022-08-03T16:46:57.158Z,28.50
2022-08-03T16:49:54.832Z,28.40
2022-08-03T16:52:13.069Z,28.30
2022-08-03T16:54:40.975Z,28.20
2022-08-03T16:57:08.618Z,28.10
2022-08-03T16:59:37.048Z,28.00
2022-08-03T17:02:10.003Z,27.90
2022-08-03T17:04:40.472Z,27.70
2022-08-03T17:07:08.696Z,27.60
2022-08-03T17:09:38.230Z,27.50
2022-08-03T17:12:07.168Z,27.40
2022-08-03T17:14:34.716Z,27.40
2022-08-03T17:17:03.995Z,27.30
2022-08-03T17:19:32.511Z,27.20
2022-08-03T17:22:06.539Z,27.20
2022-08-03T17:24:35.367Z,27.10
2022-08-03T17:27:23.129Z,27.10
2022-08-03T17:29:59.642Z,27.00
2022-08-03T17:32:27.381Z,27.00
2022-08-03T17:34:55.711Z,27.00
2022-08-03T17:37:49.925Z,26.90
2022-08-03T17:40:12.184Z,26.90
2022-08-03T17:42:50.475Z,26.90
2022-08-03T17:45:18.793Z,26.90
2022-08-03T17:47:57.719Z,26.90
2022-08-03T17:50:34.557Z,26.80
2022-08-03T17:53:07.454Z,26.80
2022-08-03T17:55:55.379Z,26.70
2022-08-03T17:58:35.553Z,26.70
2022-08-03T18:02:00.101Z,26.70
2022-08-03T18:04:11.903Z,26.60
2022-08-03T18:06:55.535Z,26.60
2022-08-03T18:10:03.613Z,26.60
2022-08-03T18:12:23.324Z,26.50
2022-08-03T18:14:57.908Z,26.50
2022-08-03T18:17:55.377Z,26.40
2022-08-03T18:23:09.278Z,26.30
2022-08-03T18:25:45.695Z,26.20
2022-08-03T18:28:19.216Z,26.20
2022-08-03T18:30:53.975Z,26.20
2022-08-03T18:34:16.410Z,26.10
2022-08-03T18:36:30.620Z,26.10
2022-08-03T18:39:01.621Z,26.00
2022-08-03T18:41:32.375Z,26.00
2022-08-03T18:47:07.251Z,25.90
2022-08-03T18:50:00.907Z,25.80
2022-08-03T18:52:52.917Z,25.80
2022-08-03T18:55:33.250Z,25.70
2022-08-03T18:58:15.730Z,25.60
2022-08-03T19:00:57.069Z,25.60
2022-08-03T19:03:43.113Z,25.50
2022-08-03T19:06:19.787Z,25.40
2022-08-03T19:08:59.191Z,25.40
2022-08-03T19:12:11.179Z,25.30
2022-08-03T19:14:28.675Z,25.20
2022-08-03T19:17:00.399Z,25.10
2022-08-03T19:19:44.284Z,25.10
2022-08-03T19:22:22.472Z,25.00
2022-08-03T19:24:51.876Z,24.90
2022-08-03T19:27:20.619Z,24.90
2022-08-03T19:29:59.079Z,24.80
2022-08-03T19:32:31.306Z,24.70
2022-08-03T19:34:59.945Z,24.60
2022-08-03T19:37:33.118Z,24.60
2022-08-03T19:40:10.317Z,24.50
2022-08-03T19:42:41.076Z,24.40
2022-08-03T19:45:13.828Z,24.40
2022-08-03T19:47:45.961Z,24.30
2022-08-03T19:50:14.029Z,24.30
2022-08-03T19:52:47.223Z,24.20
2022-08-03T19:55:15.545Z,24.20
2022-08-03T19:57:45.627Z,24.10
2022-08-03T20:00:19.719Z,24.10
2022-08-03T20:02:47.612Z,24.00
2022-08-03T20:05:18.846Z,24.00
2022-08-03T20:07:48.054Z,23.90
2022-08-03T20:10:16.854Z,23.90
2022-08-03T20:12:44.526Z,23.80
2022-08-03T20:15:12.264Z,23.80
2022-08-03T20:17:56.692Z,23.70
2022-08-03T20:20:28.168Z,23.70
2022-08-03T20:23:00.885Z,23.60
2022-08-03T20:25:38.228Z,23.60
2022-08-03T20:28:14.014Z,23.50
2022-08-03T20:30:47.112Z,23.50
2022-08-03T20:33:18.904Z,23.40
2022-08-03T20:35:48.977Z,23.40
2022-08-03T20:38:19.954Z,23.30
2022-08-03T20:40:55.154Z,23.30
2022-08-03T20:43:26.516Z,23.30
2022-08-03T20:45:59.124Z,23.20
2022-08-03T20:48:43.392Z,23.20
2022-08-03T20:51:19.851Z,23.20
2022-08-03T20:54:00.337Z,23.20
2022-08-03T20:56:35.681Z,23.20
2022-08-03T20:59:05.405Z,23.10
2022-08-03T21:01:36.460Z,23.10
2022-08-03T21:04:06.734Z,23.10
2022-08-03T21:06:39.440Z,23.00
2022-08-03T21:09:09.203Z,23.00
2022-08-03T21:11:41.767Z,23.00
2022-08-03T21:12:57.650Z,26.40
2022-08-03T21:13:04.759Z,25.90
2022-08-03T21:14:15.574Z,23.00
2022-08-03T21:16:45.325Z,22.90
2022-08-03T21:19:12.871Z,22.90
2022-08-03T21:21:41.334Z,22.90
2022-08-03T21:24:11.052Z,22.80
2022-08-03T21:26:40.788Z,22.80
2022-08-03T21:29:09.194Z,22.70
2022-08-03T21:31:39.462Z,22.70
2022-08-03T21:34:07.299Z,22.70
2022-08-03T21:36:36.081Z,22.70
2022-08-03T21:39:05.001Z,22.60
2022-08-03T21:41:32.679Z,22.60
2022-08-03T21:44:00.908Z,22.60
2022-08-03T21:46:31.533Z,22.60
2022-08-03T21:50:05.267Z,22.50
2022-08-03T21:51:49.624Z,22.50
2022-08-03T21:54:18.184Z,22.50
2022-08-03T21:56:47.295Z,22.50
2022-08-03T21:59:19.184Z,22.40
2022-08-03T22:01:49.112Z,22.40
2022-08-03T22:04:50.767Z,22.30
2022-08-03T22:07:07.377Z,22.30
2022-08-03T22:09:35.759Z,22.30
2022-08-03T22:12:03.564Z,22.20
2022-08-03T22:14:32.763Z,22.30
2022-08-03T22:17:00.613Z,22.20
2022-08-03T22:19:30.923Z,22.10
2022-08-03T22:21:59.462Z,22.10
2022-08-03T22:24:28.870Z,22.10
2022-08-03T22:27:14.634Z,22.00
2022-08-03T22:29:42.654Z,22.00
2022-08-03T22:32:10.301Z,22.00
2022-08-03T22:34:38.309Z,21.90
2022-08-03T22:37:06.651Z,21.90
2022-08-03T22:39:35.235Z,21.90
2022-08-03T22:42:04.666Z,21.90
2022-08-03T22:44:32.491Z,21.80
2022-08-03T22:46:59.839Z,21.80
2022-08-03T22:49:28.405Z,21.80
2022-08-03T22:51:56.351Z,21.80
2022-08-03T22:54:24.097Z,21.80
2022-08-03T22:56:52.111Z,21.80
2022-08-03T22:59:39.875Z,21.70
2022-08-03T23:02:15.164Z,21.70
2022-08-03T23:04:53.378Z,21.70
2022-08-03T23:07:28.875Z,21.70
2022-08-03T23:09:57.034Z,21.60
2022-08-03T23:12:24.778Z,21.60
2022-08-03T23:14:53.654Z,21.60
2022-08-03T23:17:21.997Z,21.60
2022-08-03T23:19:52.882Z,21.60
2022-08-03T23:22:29.673Z,21.50
2022-08-03T23:24:59.295Z,21.50
2022-08-03T23:27:27.543Z,21.60
2022-08-03T23:29:55.952Z,21.50
2022-08-03T23:32:25.234Z,21.50
2022-08-03T23:35:14.125Z,21.50
2022-08-03T23:38:05.283Z,21.50
2022-08-03T23:40:31.160Z,21.50
2022-08-03T23:42:59.701Z,21.50
2022-08-03T23:45:28.120Z,21.50
2022-08-03T23:47:55.589Z,21.50
2022-08-03T23:50:23.141Z,21.50
2022-08-03T23:52:58.280Z,21.50
2022-08-03T23:55:25.595Z,21.50
2022-08-03T23:58:04.484Z,21.50
